createdAt,value
2022-08-31T00:02:39.345Z,98833.34
2022-08-31T00:05:05.822Z,98838.22
2022-08-31T00:07:34.812Z,98845.94
2022-08-31T00:10:03.547Z,98843.31
2022-08-31T00:12:29.917Z,98839.75
2022-08-31T00:14:57.203Z,98839.22
2022-08-31T00:17:23.568Z,98844.44
2022-08-31T00:19:49.936Z,98832.66
2022-08-31T00:22:16.303Z,98834.81
2022-08-31T00:24:42.667Z,98835.69
2022-08-31T00:27:09.102Z,98839.28
2022-08-31T00:29:35.468Z,98838.56
2022-08-31T00:32:01.933Z,98845.38
2022-08-31T00:34:28.646Z,98840.31
2022-08-31T00:36:55.089Z,98835.66
2022-08-31T00:39:22.090Z,98829.66
2022-08-31T00:41:48.513Z,98833.34
2022-08-31T00:44:14.874Z,98829.28
2022-08-31T00:46:41.660Z,98833.63
2022-08-31T00:49:07.970Z,98834.06
2022-08-31T00:51:36.698Z,98830.25
2022-08-31T00:54:03.264Z,98836.50
2022-08-31T00:56:31.378Z,98838.84
2022-08-31T00:58:57.784Z,98841.22
2022-08-31T01:01:24.482Z,98828.56
2022-08-31T01:03:51.010Z,98828.06
2022-08-31T01:06:17.403Z,98828.63
2022-08-31T01:08:44.450Z,98833.31
2022-08-31T01:11:10.802Z,98830.34
2022-08-31T01:13:37.370Z,98826.22
2022-08-31T01:16:05.681Z,98835.47
2022-08-31T01:18:32.494Z,98822.28
2022-08-31T01:21:08.089Z,98822.88
2022-08-31T01:23:35.256Z,98828.19
2022-08-31T01:26:02.303Z,98827.06
2022-08-31T01:28:28.678Z,98834.75
2022-08-31T01:31:18.386Z,98837.28
2022-08-31T01:33:44.772Z,98827.38
2022-08-31T01:36:14.301Z,98825.16
2022-08-31T01:38:42.296Z,98823.00
2022-08-31T01:41:08.671Z,98830.38
2022-08-31T01:43:35.074Z,98829.28
2022-08-31T01:46:02.053Z,98818.22
2022-08-31T01:48:28.464Z,98825.69
2022-08-31T01:50:54.849Z,98830.63
2022-08-31T01:53:21.271Z,98825.13
2022-08-31T01:55:47.674Z,98835.56
2022-08-31T01:58:14.095Z,98827.41
2022-08-31T02:00:40.484Z,98829.66
2022-08-31T02:03:07.993Z,98835.31
2022-08-31T02:05:35.408Z,98834.72
2022-08-31T02:08:01.994Z,98839.22
2022-08-31T02:10:28.364Z,98835.78
2022-08-31T02:12:54.746Z,98830.50
2022-08-31T02:15:21.097Z,98833.91
2022-08-31T02:17:47.451Z,98826.81
2022-08-31T02:20:19.271Z,98838.97
2022-08-31T02:22:47.302Z,98830.16
2022-08-31T02:25:13.657Z,98830.97
2022-08-31T02:27:40.060Z,98840.06
2022-08-31T02:30:07.732Z,98831.88
2022-08-31T02:32:34.092Z,98832.44
2022-08-31T02:35:00.466Z,98830.38
2022-08-31T02:37:26.821Z,98839.34
2022-08-31T02:39:53.200Z,98828.38
2022-08-31T02:42:19.566Z,98829.03
2022-08-31T02:44:45.934Z,98824.22
2022-08-31T02:47:12.301Z,98819.59
2022-08-31T02:49:38.665Z,98821.16
2022-08-31T02:52:05.027Z,98821.50
2022-08-31T02:54:31.389Z,98814.34
2022-08-31T02:56:57.754Z,98815.16
2022-08-31T02:59:24.120Z,98815.03
2022-08-31T03:01:55.665Z,98818.97
2022-08-31T03:04:22.164Z,98804.38
2022-08-31T03:06:48.522Z,98813.22
2022-08-31T03:09:15.769Z,98811.25
2022-08-31T03:11:42.266Z,98814.84
2022-08-31T03:14:08.943Z,98810.09
2022-08-31T03:16:35.326Z,98815.59
2022-08-31T03:19:01.700Z,98814.78
2022-08-31T03:21:28.078Z,98815.97
2022-08-31T03:23:54.469Z,98817.00
2022-08-31T03:26:20.876Z,98809.66
2022-08-31T03:28:47.287Z,98816.88
2022-08-31T03:31:13.749Z,98812.94
2022-08-31T03:33:40.183Z,98811.31
2022-08-31T03:36:07.182Z,98811.22
2022-08-31T03:38:33.680Z,98812.13
2022-08-31T03:41:00.777Z,98820.38
2022-08-31T03:43:27.135Z,98819.78
2022-08-31T03:45:53.694Z,98824.25
2022-08-31T03:48:20.048Z,98814.06
2022-08-31T03:50:46.611Z,98819.06
2022-08-31T03:53:12.954Z,98818.41
2022-08-31T03:55:39.844Z,98816.88
2022-08-31T03:58:06.583Z,98821.81
2022-08-31T04:00:33.097Z,98819.78
2022-08-31T04:03:00.037Z,98825.00
2022-08-31T04:05:27.003Z,98829.19
2022-08-31T04:07:53.434Z,98823.28
2022-08-31T04:10:19.797Z,98826.16
2022-08-31T04:12:46.155Z,98826.97
2022-08-31T04:15:12.563Z,98836.56
2022-08-31T04:17:38.908Z,98830.19
2022-08-31T04:20:05.535Z,98831.16
2022-08-31T04:22:31.928Z,98827.22
2022-08-31T04:24:58.330Z,98831.16
2022-08-31T04:27:24.675Z,98832.09
2022-08-31T04:29:51.302Z,98835.78
2022-08-31T04:32:17.702Z,98834.41
2022-08-31T04:34:44.067Z,98825.50
2022-08-31T04:37:14.337Z,98829.31
2022-08-31T04:39:50.578Z,98836.25
2022-08-31T04:42:17.448Z,98832.81
2022-08-31T04:44:43.807Z,98837.53
2022-08-31T04:47:10.155Z,98847.97
2022-08-31T04:49:36.523Z,98842.88
2022-08-31T04:52:03.171Z,98841.88
2022-08-31T04:54:29.561Z,98835.09
2022-08-31T04:56:55.986Z,98838.53
2022-08-31T04:59:26.121Z,98841.13
2022-08-31T05:01:52.687Z,98841.13
2022-08-31T05:04:19.243Z,98845.50
2022-08-31T05:06:45.706Z,98840.56
2022-08-31T05:09:16.057Z,98851.13
2022-08-31T05:11:42.557Z,98852.50
2022-08-31T05:14:09.089Z,98843.81
2022-08-31T05:16:37.362Z,98851.16
2022-08-31T05:19:03.717Z,98853.78
2022-08-31T05:21:30.890Z,98852.16
2022-08-31T05:23:58.052Z,98846.47
2022-08-31T05:26:26.822Z,98853.94
2022-08-31T05:28:53.730Z,98849.97
2022-08-31T05:31:21.367Z,98857.72
2022-08-31T05:33:47.834Z,98866.25
2022-08-31T05:36:14.192Z,98864.91
2022-08-31T05:38:40.557Z,98872.31
2022-08-31T05:41:07.516Z,98870.59
2022-08-31T05:43:33.939Z,98870.41
2022-08-31T05:46:00.555Z,98873.91
2022-08-31T05:48:29.843Z,98878.41
2022-08-31T05:50:59.724Z,98875.91
2022-08-31T05:53:27.098Z,98877.59
2022-08-31T05:56:00.421Z,98883.81
2022-08-31T05:58:26.897Z,98885.41
2022-08-31T06:00:53.250Z,98883.88
2022-08-31T06:03:19.752Z,98896.00
2022-08-31T06:05:46.256Z,98894.56
2022-08-31T06:08:15.345Z,98896.84
2022-08-31T06:10:41.867Z,98888.66
2022-08-31T06:13:08.698Z,98900.38
2022-08-31T06:15:35.485Z,98894.94
2022-08-31T06:18:08.417Z,98899.78
2022-08-31T06:20:37.976Z,98908.13
2022-08-31T06:23:05.495Z,98910.09
2022-08-31T06:25:32.496Z,98905.66
2022-08-31T06:27:59.476Z,98909.53
2022-08-31T06:30:27.456Z,98908.72
2022-08-31T06:32:58.334Z,98905.22
2022-08-31T06:35:25.100Z,98906.53
2022-08-31T06:37:51.825Z,98909.50
2022-08-31T06:40:18.315Z,98913.06
2022-08-31T06:42:44.759Z,98910.84
2022-08-31T06:45:11.324Z,98912.31
2022-08-31T06:47:37.719Z,98910.78
2022-08-31T06:50:04.272Z,98923.50
2022-08-31T06:52:30.876Z,98918.63
2022-08-31T06:54:57.292Z,98923.16
2022-08-31T06:57:23.748Z,98919.63
2022-08-31T06:59:51.780Z,98924.31
2022-08-31T07:02:18.346Z,98919.91
2022-08-31T07:04:44.932Z,98918.81
2022-08-31T07:07:11.508Z,98925.47
2022-08-31T07:09:39.455Z,98925.09
2022-08-31T07:12:05.873Z,98930.28
2022-08-31T07:14:32.327Z,98927.34
2022-08-31T07:16:58.870Z,98932.19
2022-08-31T07:19:25.345Z,98933.22
2022-08-31T07:21:55.757Z,98935.50
2022-08-31T07:24:27.790Z,98934.88
2022-08-31T07:27:04.335Z,98942.88
2022-08-31T07:29:33.015Z,98935.38
2022-08-31T07:31:59.591Z,98940.78
2022-08-31T07:34:26.939Z,98938.59
2022-08-31T07:37:12.563Z,98937.81
2022-08-31T07:39:57.672Z,98956.28
2022-08-31T07:42:26.131Z,98944.22
2022-08-31T07:44:53.440Z,98952.28
2022-08-31T07:47:20.562Z,98960.41
2022-08-31T07:49:51.226Z,98956.09
2022-08-31T07:52:21.946Z,98956.09
2022-08-31T07:54:48.580Z,98960.94
2022-08-31T07:57:15.585Z,98961.47
2022-08-31T07:59:41.950Z,98966.44
2022-08-31T08:02:08.592Z,98958.97
2022-08-31T08:04:40.894Z,98963.69
2022-08-31T08:07:07.313Z,98969.31
2022-08-31T08:09:34.497Z,98970.28
2022-08-31T08:12:06.216Z,98977.44
2022-08-31T08:14:34.352Z,98971.34
2022-08-31T08:17:01.232Z,98980.41
2022-08-31T08:19:27.825Z,98978.59
2022-08-31T08:21:55.550Z,98983.53
2022-08-31T08:24:22.674Z,98980.38
2022-08-31T08:26:53.956Z,98988.56
2022-08-31T08:29:20.768Z,98986.72
2022-08-31T08:31:56.262Z,98985.56
2022-08-31T08:34:27.106Z,98987.56
2022-08-31T08:36:59.178Z,98993.59
2022-08-31T08:39:25.859Z,98989.81
2022-08-31T08:41:52.254Z,98995.56
2022-08-31T08:44:18.875Z,98992.56
2022-08-31T08:46:47.976Z,98987.31
2022-08-31T08:49:14.950Z,98996.44
2022-08-31T08:51:41.360Z,98995.44
2022-08-31T08:54:10.859Z,98992.41
2022-08-31T08:56:42.058Z,98993.13
2022-08-31T08:59:12.162Z,98988.69
2022-08-31T09:01:40.248Z,98998.38
2022-08-31T09:04:17.125Z,98998.94
2022-08-31T09:06:54.643Z,98994.47
2022-08-31T09:09:39.934Z,98997.56
2022-08-31T09:12:11.383Z,98996.31
2022-08-31T09:14:50.462Z,98997.19
2022-08-31T09:17:26.200Z,98995.72
2022-08-31T09:20:00.423Z,98997.63
2022-08-31T09:22:30.756Z,98998.16
2022-08-31T09:24:59.596Z,98999.47
2022-08-31T09:27:40.133Z,99003.59
2022-08-31T09:30:06.743Z,98992.06
2022-08-31T09:32:34.834Z,98998.50
2022-08-31T09:35:02.551Z,98994.09
2022-08-31T09:37:33.473Z,98983.69
2022-08-31T09:40:32.564Z,98996.59
2022-08-31T09:43:02.638Z,98985.72
2022-08-31T09:45:41.810Z,98990.88
2022-08-31T09:48:08.825Z,98989.69
2022-08-31T09:50:45.588Z,98989.22
2022-08-31T09:53:35.069Z,99000.50
2022-08-31T09:56:05.656Z,98995.28
2022-08-31T09:58:34.409Z,99011.47
2022-08-31T10:01:12.933Z,99006.66
2022-08-31T10:03:44.198Z,98999.72
2022-08-31T10:06:25.116Z,99013.50
2022-08-31T10:08:57.917Z,99001.78
2022-08-31T10:11:26.629Z,98993.28
2022-08-31T10:14:00.402Z,98998.38
2022-08-31T10:16:33.022Z,98995.06
2022-08-31T10:19:01.826Z,99003.56
2022-08-31T10:21:32.254Z,98997.94
2022-08-31T10:24:10.412Z,99002.06
2022-08-31T10:26:37.916Z,98999.53
2022-08-31T10:29:28.391Z,98998.22
2022-08-31T10:31:55.353Z,98990.88
2022-08-31T10:34:41.782Z,98988.16
2022-08-31T10:37:12.513Z,98991.66
2022-08-31T10:39:47.101Z,98990.38
2022-08-31T10:42:30.698Z,98991.63
2022-08-31T10:44:59.314Z,99001.84
2022-08-31T10:47:33.718Z,98984.81
2022-08-31T10:50:03.082Z,98991.47
2022-08-31T10:52:32.321Z,98990.75
2022-08-31T10:55:06.664Z,98982.66
2022-08-31T10:57:39.904Z,98979.09
2022-08-31T11:00:30.049Z,98994.63
2022-08-31T11:03:00.130Z,98993.72
2022-08-31T11:05:35.155Z,98983.22
2022-08-31T11:08:13.836Z,98976.56
2022-08-31T11:10:49.959Z,98982.00
2022-08-31T11:13:25.948Z,98983.72
2022-08-31T11:15:58.922Z,98974.50
2022-08-31T11:18:36.228Z,98985.72
2022-08-31T11:21:05.653Z,98970.47
2022-08-31T11:23:35.789Z,98970.00
2022-08-31T11:26:28.476Z,98978.91
2022-08-31T11:28:56.422Z,98977.72
2022-08-31T11:31:24.283Z,98972.06
2022-08-31T11:34:15.069Z,98970.09
2022-08-31T11:36:49.891Z,98979.75
2022-08-31T11:39:20.282Z,98972.19
2022-08-31T11:41:48.528Z,98966.56
2022-08-31T11:44:30.217Z,98968.34
2022-08-31T11:47:09.321Z,98966.38
2022-08-31T11:49:36.769Z,98957.56
2022-08-31T11:52:10.354Z,98963.75
2022-08-31T11:54:42.797Z,98958.50
2022-08-31T11:57:15.915Z,98960.69
2022-08-31T11:59:46.212Z,98955.84
2022-08-31T12:02:21.775Z,98959.69
2022-08-31T12:04:53.236Z,98952.50
2022-08-31T12:07:38.805Z,98952.44
2022-08-31T12:10:27.194Z,98954.38
2022-08-31T12:13:19.526Z,98960.97
2022-08-31T12:16:07.156Z,98951.28
2022-08-31T12:19:03.135Z,98951.63
2022-08-31T12:21:57.137Z,98952.97
2022-08-31T12:24:29.807Z,98953.44
2022-08-31T12:27:17.711Z,98954.25
2022-08-31T12:29:44.068Z,98948.72
2022-08-31T12:32:12.785Z,98940.94
2022-08-31T12:34:42.768Z,98943.16
2022-08-31T12:37:19.389Z,98940.84
2022-08-31T12:39:45.739Z,98934.25
2022-08-31T12:42:12.101Z,98943.28
2022-08-31T12:44:48.132Z,98945.81
2022-08-31T12:47:26.571Z,98940.31
2022-08-31T12:50:11.082Z,98941.97
2022-08-31T12:52:42.710Z,98936.22
2022-08-31T12:55:12.663Z,98933.97
2022-08-31T12:57:50.771Z,98930.53
2022-08-31T13:00:26.349Z,98935.59
2022-08-31T13:02:53.643Z,98929.34
2022-08-31T13:05:30.595Z,98924.41
2022-08-31T13:07:56.983Z,98927.44
2022-08-31T13:10:30.597Z,98927.47
2022-08-31T13:12:58.430Z,98930.31
2022-08-31T13:15:25.907Z,98922.94
2022-08-31T13:17:53.306Z,98933.16
2022-08-31T13:20:19.739Z,98931.25
2022-08-31T13:22:48.852Z,98930.03
2022-08-31T13:25:35.590Z,98922.59
2022-08-31T13:28:03.477Z,98918.97
2022-08-31T13:30:31.759Z,98912.31
2022-08-31T13:32:59.255Z,98908.75
2022-08-31T13:35:25.849Z,98902.44
2022-08-31T13:38:05.309Z,98909.94
2022-08-31T13:40:33.583Z,98914.38
2022-08-31T13:42:59.999Z,98911.31
2022-08-31T13:45:27.663Z,98910.22
2022-08-31T13:47:57.252Z,98913.00
2022-08-31T13:50:25.928Z,98915.25
2022-08-31T13:53:23.018Z,98919.53
2022-08-31T13:55:44.150Z,98912.25
2022-08-31T13:58:22.815Z,98900.91
2022-08-31T14:00:58.761Z,98897.69
2022-08-31T14:03:40.958Z,98892.03
2022-08-31T14:06:16.602Z,98889.63
2022-08-31T14:08:46.632Z,98902.19
2022-08-31T14:11:15.693Z,98889.78
2022-08-31T14:13:47.217Z,98895.56
2022-08-31T14:16:16.674Z,98898.53
2022-08-31T14:18:45.046Z,98899.53
2022-08-31T14:21:29.427Z,98896.78
2022-08-31T14:24:00.994Z,98890.84
2022-08-31T14:26:28.973Z,98887.84
2022-08-31T14:28:56.542Z,98878.22
2022-08-31T14:31:24.382Z,98883.81
2022-08-31T14:33:57.506Z,98882.66
2022-08-31T14:36:24.485Z,98881.09
2022-08-31T14:38:54.251Z,98884.75
2022-08-31T14:41:25.649Z,98871.94
2022-08-31T14:43:54.408Z,98871.75
2022-08-31T14:46:27.868Z,98872.59
2022-08-31T14:48:55.288Z,98859.75
2022-08-31T14:51:22.397Z,98865.31
2022-08-31T14:53:48.744Z,98862.16
2022-08-31T14:56:20.485Z,98859.88
2022-08-31T14:58:50.701Z,98858.28
2022-08-31T15:01:17.729Z,98853.41
2022-08-31T15:03:45.070Z,98856.88
2022-08-31T15:06:13.672Z,98856.19
2022-08-31T15:08:40.839Z,98863.75
2022-08-31T15:11:10.070Z,98858.63
2022-08-31T15:13:39.582Z,98859.06
2022-08-31T15:16:06.497Z,98856.81
2022-08-31T15:18:33.767Z,98850.38
2022-08-31T15:21:02.050Z,98852.78
2022-08-31T15:23:29.649Z,98848.88
2022-08-31T15:26:06.345Z,98848.03
2022-08-31T15:28:41.892Z,98850.84
2022-08-31T15:31:11.309Z,98836.66
2022-08-31T15:33:41.313Z,98843.91
2022-08-31T15:36:09.144Z,98839.09
2022-08-31T15:41:01.732Z,98845.28
2022-08-31T15:43:28.287Z,98842.06
2022-08-31T15:45:54.670Z,98845.69
2022-08-31T15:48:39.871Z,98844.88
2022-08-31T15:51:06.363Z,98843.34
2022-08-31T15:53:35.418Z,98844.19
2022-08-31T15:56:06.241Z,98832.88
2022-08-31T15:58:33.687Z,98833.69
2022-08-31T16:01:00.397Z,98826.84
2022-08-31T16:03:32.162Z,98826.50
2022-08-31T16:06:03.129Z,98821.25
2022-08-31T16:08:29.563Z,98829.72
2022-08-31T16:10:56.066Z,98828.53
2022-08-31T16:13:22.531Z,98821.69
2022-08-31T16:15:51.065Z,98823.28
2022-08-31T16:18:18.560Z,98827.75
2022-08-31T16:20:48.030Z,98828.19
2022-08-31T16:23:14.632Z,98821.75
2022-08-31T16:25:48.456Z,98822.19
2022-08-31T16:28:16.232Z,98822.19
2022-08-31T16:30:43.861Z,98821.38
2022-08-31T16:33:11.517Z,98811.28
2022-08-31T16:35:38.670Z,98810.91
2022-08-31T16:38:06.479Z,98818.19
2022-08-31T16:40:33.307Z,98820.59
2022-08-31T16:42:59.884Z,98812.94
2022-08-31T16:45:26.391Z,98810.13
2022-08-31T16:48:12.875Z,98815.38
2022-08-31T16:50:43.827Z,98809.31
2022-08-31T16:53:10.265Z,98815.41
2022-08-31T16:55:42.037Z,98817.00
2022-08-31T16:58:08.486Z,98813.38
2022-08-31T17:00:37.896Z,98814.22
2022-08-31T17:03:04.529Z,98812.59
2022-08-31T17:05:30.964Z,98814.63
2022-08-31T17:07:57.731Z,98811.78
2022-08-31T17:10:24.222Z,98812.19
2022-08-31T17:12:52.216Z,98822.63
2022-08-31T17:15:20.817Z,98821.84
2022-08-31T17:17:48.048Z,98820.22
2022-08-31T17:20:16.507Z,98831.50
2022-08-31T17:22:44.810Z,98824.66
2022-08-31T17:25:13.181Z,98824.66
2022-08-31T17:27:39.820Z,98821.84
2022-08-31T17:30:07.368Z,98826.63
2022-08-31T17:32:36.564Z,98823.41
2022-08-31T17:35:11.541Z,98821.84
2022-08-31T17:37:38.525Z,98826.22
2022-08-31T17:40:08.034Z,98832.66
2022-08-31T17:42:35.002Z,98828.22
2022-08-31T17:45:04.997Z,98827.78
2022-08-31T17:47:33.104Z,98831.38
2022-08-31T17:49:59.554Z,98833.03
2022-08-31T17:52:26.021Z,98834.59
2022-08-31T17:54:52.656Z,98832.59
2022-08-31T17:57:21.321Z,98832.56
2022-08-31T17:59:50.732Z,98833.31
2022-08-31T18:02:19.102Z,98840.00
2022-08-31T18:04:45.739Z,98841.16
2022-08-31T18:07:12.269Z,98842.31
2022-08-31T18:09:39.654Z,98841.41
2022-08-31T18:12:06.313Z,98844.13
2022-08-31T18:14:32.954Z,98840.69
2022-08-31T18:17:00.533Z,98841.59
2022-08-31T18:19:28.189Z,98844.75
2022-08-31T18:21:57.925Z,98842.38
2022-08-31T18:24:24.930Z,98840.13
2022-08-31T18:26:51.853Z,98838.72
2022-08-31T18:29:22.627Z,98845.56
2022-08-31T18:31:52.969Z,98858.78
2022-08-31T18:34:21.229Z,98851.50
2022-08-31T18:36:48.294Z,98845.78
2022-08-31T18:39:29.416Z,98849.06
2022-08-31T18:42:23.603Z,98850.63
2022-08-31T18:45:08.608Z,98845.47
2022-08-31T18:47:35.113Z,98854.00
2022-08-31T18:50:03.319Z,98855.53
2022-08-31T18:52:29.847Z,98857.31
2022-08-31T18:54:56.979Z,98856.22
2022-08-31T18:57:23.798Z,98861.91
2022-08-31T18:59:50.818Z,98873.47
2022-08-31T19:02:22.840Z,98871.13
2022-08-31T19:04:50.315Z,98866.63
2022-08-31T19:07:16.884Z,98864.97
2022-08-31T19:09:45.089Z,98871.09
2022-08-31T19:12:13.671Z,98873.22
2022-08-31T19:14:40.466Z,98868.56
2022-08-31T19:17:08.320Z,98869.00
2022-08-31T19:19:34.845Z,98864.56
2022-08-31T19:22:02.094Z,98872.25
2022-08-31T19:24:28.690Z,98875.81
2022-08-31T19:26:56.062Z,98868.88
2022-08-31T19:29:25.009Z,98874.22
2022-08-31T19:31:51.789Z,98869.63
2022-08-31T19:34:19.787Z,98875.84
2022-08-31T19:36:48.677Z,98878.16
2022-08-31T19:39:20.213Z,98873.59
2022-08-31T19:41:57.416Z,98870.00
2022-08-31T19:44:26.439Z,98867.44
2022-08-31T19:46:53.447Z,98867.31
2022-08-31T19:49:20.021Z,98874.47
2022-08-31T19:51:58.636Z,98881.50
2022-08-31T19:54:26.176Z,98878.91
2022-08-31T19:56:52.887Z,98879.28
2022-08-31T19:59:21.088Z,98878.72
2022-08-31T20:01:48.289Z,98875.13
2022-08-31T20:04:17.222Z,98876.22
2022-08-31T20:06:45.154Z,98881.97
2022-08-31T20:09:11.643Z,98878.78
2022-08-31T20:11:38.085Z,98880.53
2022-08-31T20:14:05.196Z,98879.59
2022-08-31T20:16:34.146Z,98881.81
2022-08-31T20:19:00.787Z,98886.72
2022-08-31T20:21:28.096Z,98877.34
2022-08-31T20:23:56.390Z,98882.50
2022-08-31T20:26:27.877Z,98871.28
2022-08-31T20:29:01.216Z,98878.72
2022-08-31T20:31:27.824Z,98876.72
2022-08-31T20:33:55.645Z,98876.13
2022-08-31T20:36:23.054Z,98886.34
2022-08-31T20:38:52.214Z,98883.69
2022-08-31T20:41:18.945Z,98882.03
2022-08-31T20:43:46.057Z,98882.63
2022-08-31T20:46:32.412Z,98883.75
2022-08-31T20:49:17.499Z,98884.34
2022-08-31T20:51:44.725Z,98882.91
2022-08-31T20:54:11.294Z,98882.66
2022-08-31T20:56:39.430Z,98882.91
2022-08-31T20:59:09.734Z,98887.47
2022-08-31T21:01:39.205Z,98882.34
2022-08-31T21:04:05.898Z,98889.22
2022-08-31T21:06:37.325Z,98882.09
2022-08-31T21:09:03.690Z,98893.94
2022-08-31T21:11:30.035Z,98887.44
2022-08-31T21:13:56.387Z,98882.75
2022-08-31T21:16:23.560Z,98886.78
2022-08-31T21:18:49.963Z,98891.53
2022-08-31T21:21:17.391Z,98885.25
2022-08-31T21:23:46.907Z,98883.03
2022-08-31T21:26:17.347Z,98879.50
2022-08-31T21:28:46.268Z,98880.03
2022-08-31T21:31:15.648Z,98886.00
2022-08-31T21:33:54.699Z,98873.41
2022-08-31T21:36:25.971Z,98881.13
2022-08-31T21:38:52.763Z,98889.06
2022-08-31T21:41:20.054Z,98884.94
2022-08-31T21:43:46.990Z,98882.09
2022-08-31T21:46:14.285Z,98883.06
2022-08-31T21:48:42.366Z,98889.94
2022-08-31T21:51:10.103Z,98897.47
2022-08-31T21:53:36.467Z,98883.03
2022-08-31T21:56:03.186Z,98886.06
2022-08-31T21:58:29.573Z,98890.84
2022-08-31T22:00:56.312Z,98888.75
2022-08-31T22:03:22.683Z,98884.69
2022-08-31T22:05:49.044Z,98887.53
2022-08-31T22:08:15.428Z,98890.84
2022-08-31T22:10:42.151Z,98889.66
2022-08-31T22:13:11.545Z,98890.38
2022-08-31T22:15:38.214Z,98891.34
2022-08-31T22:18:58.418Z,98899.72
2022-08-31T22:20:52.378Z,98892.00
2022-08-31T22:23:18.851Z,98898.25
2022-08-31T22:25:45.227Z,98897.66
2022-08-31T22:28:12.861Z,98892.44
2022-08-31T22:30:39.349Z,98895.38
2022-08-31T22:33:05.756Z,98894.38
2022-08-31T22:35:32.123Z,98895.28
2022-08-31T22:37:58.538Z,98894.91
2022-08-31T22:40:25.011Z,98892.66
2022-08-31T22:42:51.918Z,98882.75
2022-08-31T22:45:18.441Z,98889.94
2022-08-31T22:47:49.762Z,98888.44
2022-08-31T22:50:16.678Z,98890.84
2022-08-31T22:52:43.048Z,98891.41
2022-08-31T22:55:09.522Z,98895.03
2022-08-31T22:57:36.554Z,98891.34
2022-08-31T23:00:04.368Z,98898.41
2022-08-31T23:02:31.158Z,98893.75
2022-08-31T23:04:57.736Z,98893.44
2022-08-31T23:07:24.087Z,98881.34
2022-08-31T23:09:50.436Z,98883.53
2022-08-31T23:12:16.827Z,98886.22
2022-08-31T23:14:43.182Z,98884.50
2022-08-31T23:17:13.761Z,98890.41
2022-08-31T23:19:41.116Z,98885.50
2022-08-31T23:22:09.400Z,98888.53
2022-08-31T23:24:37.044Z,98889.22
2022-08-31T23:27:07.268Z,98886.81
2022-08-31T23:29:34.945Z,98882.03
2022-08-31T23:32:01.486Z,98880.34
2022-08-31T23:34:27.843Z,98879.81
2022-08-31T23:36:55.521Z,98875.41
2022-08-31T23:39:22.878Z,98881.25
2022-08-31T23:41:49.368Z,98877.53
2022-08-31T23:44:15.994Z,98874.34
2022-08-31T23:46:43.269Z,98882.00
2022-08-31T23:49:10.136Z,98877.25
2022-08-31T23:51:36.509Z,98882.44
2022-08-31T23:54:06.312Z,98878.13
2022-08-31T23:56:33.063Z,98880.03
2022-08-31T23:58:59.555Z,98881.56
